sensor_id;sensor_type;location;lat;lon;timestamp;P1;durP1;ratioP1;P2;durP2;ratioP2
56593;SDS011;42474;51.660;5.824;2022-09-06T00:03:15;3.0;;;2.0;;
56593;SDS011;42474;51.660;5.824;2022-09-06T00:08:14;2.9;;;1.8;;
56593;SDS011;42474;51.660;5.824;2022-09-06T00:13:14;3.7;;;2.0;;
56593;SDS011;42474;51.660;5.824;2022-09-06T00:18:14;2.8;;;2.0;;
56593;SDS011;42474;51.660;5.824;2022-09-06T00:23:14;4.2;;;1.8;;
56593;SDS011;42474;51.660;5.824;2022-09-06T00:28:14;1.9;;;1.5;;
56593;SDS011;42474;51.660;5.824;2022-09-06T00:33:14;3.3;;;1.8;;
56593;SDS011;42474;51.660;5.824;2022-09-06T00:38:14;3.4;;;1.8;;
56593;SDS011;42474;51.660;5.824;2022-09-06T00:43:14;2.2;;;1.7;;
56593;SDS011;42474;51.660;5.824;2022-09-06T00:48:15;2.5;;;1.7;;
56593;SDS011;42474;51.660;5.824;2022-09-06T00:53:14;2.5;;;1.6;;
56593;SDS011;42474;51.660;5.824;2022-09-06T00:58:14;3.3;;;2.5;;
56593;SDS011;42474;51.660;5.824;2022-09-06T01:03:14;3.2;;;2.6;;
56593;SDS011;42474;51.660;5.824;2022-09-06T01:08:52;3.9;;;3.1;;
56593;SDS011;42474;51.660;5.824;2022-09-06T01:14:29;4.0;;;3.1;;
56593;SDS011;42474;51.660;5.824;2022-09-06T01:20:17;5.5;;;3.5;;
56593;SDS011;42474;51.660;5.824;2022-09-06T01:27:02;6.8;;;3.6;;
56593;SDS011;42474;51.660;5.824;2022-09-06T01:29:38;4.9;;;3.4;;
56593;SDS011;42474;51.660;5.824;2022-09-06T01:33:20;5.3;;;3.8;;
56593;SDS011;42474;51.660;5.824;2022-09-06T01:38:15;4.9;;;3.3;;
56593;SDS011;42474;51.660;5.824;2022-09-06T01:43:23;5.5;;;4.2;;
56593;SDS011;42474;51.660;5.824;2022-09-06T01:48:35;4.7;;;3.8;;
56593;SDS011;42474;51.660;5.824;2022-09-06T01:54:34;3.9;;;3.5;;
56593;SDS011;42474;51.660;5.824;2022-09-06T02:00:06;5.2;;;4.2;;
56593;SDS011;42474;51.660;5.824;2022-09-06T02:03:43;5.2;;;4.3;;
56593;SDS011;42474;51.660;5.824;2022-09-06T02:08:15;7.2;;;4.7;;
56593;SDS011;42474;51.660;5.824;2022-09-06T02:13:17;6.4;;;4.8;;
56593;SDS011;42474;51.660;5.824;2022-09-06T02:18:15;5.4;;;4.3;;
56593;SDS011;42474;51.660;5.824;2022-09-06T02:23:14;5.9;;;4.6;;
56593;SDS011;42474;51.660;5.824;2022-09-06T02:28:14;7.0;;;4.9;;
56593;SDS011;42474;51.660;5.824;2022-09-06T02:33:15;7.0;;;4.3;;
56593;SDS011;42474;51.660;5.824;2022-09-06T02:38:14;5.0;;;3.8;;
56593;SDS011;42474;51.660;5.824;2022-09-06T02:43:14;6.4;;;5.2;;
56593;SDS011;42474;51.660;5.824;2022-09-06T02:48:14;7.0;;;5.2;;
56593;SDS011;42474;51.660;5.824;2022-09-06T02:53:15;6.7;;;5.3;;
56593;SDS011;42474;51.660;5.824;2022-09-06T02:58:14;8.3;;;5.8;;
56593;SDS011;42474;51.660;5.824;2022-09-06T03:03:14;5.5;;;4.6;;
56593;SDS011;42474;51.660;5.824;2022-09-06T03:08:14;6.9;;;5.0;;
56593;SDS011;42474;51.660;5.824;2022-09-06T03:13:14;8.4;;;4.9;;
56593;SDS011;42474;51.660;5.824;2022-09-06T03:18:14;6.7;;;5.4;;
56593;SDS011;42474;51.660;5.824;2022-09-06T03:23:14;6.0;;;5.0;;
56593;SDS011;42474;51.660;5.824;2022-09-06T03:28:14;6.5;;;5.1;;
56593;SDS011;42474;51.660;5.824;2022-09-06T03:33:14;6.7;;;5.0;;
56593;SDS011;42474;51.660;5.824;2022-09-06T03:38:14;6.3;;;5.0;;
56593;SDS011;42474;51.660;5.824;2022-09-06T03:43:15;7.0;;;5.2;;
56593;SDS011;42474;51.660;5.824;2022-09-06T03:48:15;7.7;;;5.3;;
56593;SDS011;42474;51.660;5.824;2022-09-06T03:53:15;6.3;;;5.3;;
56593;SDS011;42474;51.660;5.824;2022-09-06T03:58:15;7.0;;;5.7;;
56593;SDS011;42474;51.660;5.824;2022-09-06T04:03:14;6.4;;;5.5;;
56593;SDS011;42474;51.660;5.824;2022-09-06T04:08:14;7.1;;;5.6;;
56593;SDS011;42474;51.660;5.824;2022-09-06T04:13:14;5.7;;;4.9;;
56593;SDS011;42474;51.660;5.824;2022-09-06T04:18:14;6.6;;;5.3;;
56593;SDS011;42474;51.660;5.824;2022-09-06T04:23:14;6.0;;;5.3;;
56593;SDS011;42474;51.660;5.824;2022-09-06T04:28:14;6.3;;;5.0;;
56593;SDS011;42474;51.660;5.824;2022-09-06T04:33:14;6.7;;;5.7;;
56593;SDS011;42474;51.660;5.824;2022-09-06T04:38:14;6.9;;;5.6;;
56593;SDS011;42474;51.660;5.824;2022-09-06T04:43:14;6.3;;;5.1;;
56593;SDS011;42474;51.660;5.824;2022-09-06T04:48:14;5.9;;;5.0;;
56593;SDS011;42474;51.660;5.824;2022-09-06T04:53:14;6.9;;;5.5;;
56593;SDS011;42474;51.660;5.824;2022-09-06T04:58:14;7.3;;;5.2;;
56593;SDS011;42474;51.660;5.824;2022-09-06T05:03:14;9.1;;;5.7;;
56593;SDS011;42474;51.660;5.824;2022-09-06T05:08:14;7.2;;;5.7;;
56593;SDS011;42474;51.660;5.824;2022-09-06T05:13:14;7.7;;;5.7;;
56593;SDS011;42474;51.660;5.824;2022-09-06T05:18:14;9.4;;;6.4;;
56593;SDS011;42474;51.660;5.824;2022-09-06T05:23:14;7.7;;;6.1;;
56593;SDS011;42474;51.660;5.824;2022-09-06T05:28:14;8.5;;;6.4;;
56593;SDS011;42474;51.660;5.824;2022-09-06T05:33:18;7.5;;;6.6;;
56593;SDS011;42474;51.660;5.824;2022-09-06T05:38:14;8.8;;;7.0;;
56593;SDS011;42474;51.660;5.824;2022-09-06T05:43:14;9.9;;;7.6;;
56593;SDS011;42474;51.660;5.824;2022-09-06T05:48:14;10.7;;;8.4;;
56593;SDS011;42474;51.660;5.824;2022-09-06T05:53:14;10.8;;;8.2;;
56593;SDS011;42474;51.660;5.824;2022-09-06T05:58:14;19.2;;;9.1;;
56593;SDS011;42474;51.660;5.824;2022-09-06T06:03:14;12.0;;;9.1;;
56593;SDS011;42474;51.660;5.824;2022-09-06T06:08:14;12.7;;;9.3;;
56593;SDS011;42474;51.660;5.824;2022-09-06T06:13:14;13.5;;;9.6;;
56593;SDS011;42474;51.660;5.824;2022-09-06T06:18:14;13.2;;;9.7;;
56593;SDS011;42474;51.660;5.824;2022-09-06T06:23:14;13.6;;;9.6;;
56593;SDS011;42474;51.660;5.824;2022-09-06T06:28:14;12.1;;;9.8;;
56593;SDS011;42474;51.660;5.824;2022-09-06T06:33:14;13.3;;;9.7;;
56593;SDS011;42474;51.660;5.824;2022-09-06T06:38:14;14.1;;;10.0;;
56593;SDS011;42474;51.660;5.824;2022-09-06T06:43:14;14.1;;;9.4;;
56593;SDS011;42474;51.660;5.824;2022-09-06T06:48:14;15.3;;;9.6;;
56593;SDS011;42474;51.660;5.824;2022-09-06T06:53:14;11.5;;;9.0;;
56593;SDS011;42474;51.660;5.824;2022-09-06T06:58:14;10.8;;;7.6;;
56593;SDS011;42474;51.660;5.824;2022-09-06T07:03:14;11.1;;;7.5;;
56593;SDS011;42474;51.660;5.824;2022-09-06T07:08:14;7.7;;;6.8;;
56593;SDS011;42474;51.660;5.824;2022-09-06T07:13:14;8.0;;;6.9;;
56593;SDS011;42474;51.660;5.824;2022-09-06T07:18:14;9.6;;;6.3;;
56593;SDS011;42474;51.660;5.824;2022-09-06T07:23:14;7.7;;;6.4;;
56593;SDS011;42474;51.660;5.824;2022-09-06T07:28:14;7.4;;;5.6;;
56593;SDS011;42474;51.660;5.824;2022-09-06T07:33:14;8.9;;;5.9;;
56593;SDS011;42474;51.660;5.824;2022-09-06T07:38:14;7.2;;;5.5;;
56593;SDS011;42474;51.660;5.824;2022-09-06T07:43:14;7.9;;;5.2;;
56593;SDS011;42474;51.660;5.824;2022-09-06T07:48:14;6.8;;;4.9;;
56593;SDS011;42474;51.660;5.824;2022-09-06T07:53:15;6.2;;;4.5;;
56593;SDS011;42474;51.660;5.824;2022-09-06T07:58:14;8.5;;;5.0;;
56593;SDS011;42474;51.660;5.824;2022-09-06T08:03:15;8.1;;;5.1;;
56593;SDS011;42474;51.660;5.824;2022-09-06T08:08:14;6.1;;;4.6;;
56593;SDS011;42474;51.660;5.824;2022-09-06T08:13:14;6.4;;;4.3;;
56593;SDS011;42474;51.660;5.824;2022-09-06T08:18:14;5.9;;;4.7;;
56593;SDS011;42474;51.660;5.824;2022-09-06T08:23:14;8.4;;;3.9;;
56593;SDS011;42474;51.660;5.824;2022-09-06T08:28:15;5.2;;;4.3;;
56593;SDS011;42474;51.660;5.824;2022-09-06T08:33:14;5.4;;;3.7;;
56593;SDS011;42474;51.660;5.824;2022-09-06T08:38:15;6.1;;;3.5;;
56593;SDS011;42474;51.660;5.824;2022-09-06T08:43:17;4.2;;;3.1;;
56593;SDS011;42474;51.660;5.824;2022-09-06T08:48:14;3.6;;;2.3;;
56593;SDS011;42474;51.660;5.824;2022-09-06T08:53:19;4.1;;;2.4;;
56593;SDS011;42474;51.660;5.824;2022-09-06T08:58:49;5.6;;;2.5;;
56593;SDS011;42474;51.660;5.824;2022-09-06T09:03:19;4.0;;;2.0;;
56593;SDS011;42474;51.660;5.824;2022-09-06T09:08:23;3.3;;;1.9;;
56593;SDS011;42474;51.660;5.824;2022-09-06T09:13:16;2.7;;;1.9;;
56593;SDS011;42474;51.660;5.824;2022-09-06T09:18:16;4.2;;;1.7;;
56593;SDS011;42474;51.660;5.824;2022-09-06T09:23:14;2.8;;;1.4;;
56593;SDS011;42474;51.660;5.824;2022-09-06T09:28:15;3.0;;;1.5;;
56593;SDS011;42474;51.660;5.824;2022-09-06T09:33:21;3.3;;;1.4;;
56593;SDS011;42474;51.660;5.824;2022-09-06T09:38:19;5.4;;;1.5;;
56593;SDS011;42474;51.660;5.824;2022-09-06T09:43:15;2.4;;;1.5;;
56593;SDS011;42474;51.660;5.824;2022-09-06T09:48:26;2.1;;;1.3;;
56593;SDS011;42474;51.660;5.824;2022-09-06T09:53:16;3.1;;;1.6;;
56593;SDS011;42474;51.660;5.824;2022-09-06T09:58:31;4.1;;;1.5;;
56593;SDS011;42474;51.660;5.824;2022-09-06T10:03:19;3.8;;;1.4;;
56593;SDS011;42474;51.660;5.824;2022-09-06T10:08:14;2.6;;;1.6;;
56593;SDS011;42474;51.660;5.824;2022-09-06T10:13:25;2.8;;;1.8;;
56593;SDS011;42474;51.660;5.824;2022-09-06T10:18:16;4.0;;;2.3;;
56593;SDS011;42474;51.660;5.824;2022-09-06T10:23:47;3.4;;;2.3;;
56593;SDS011;42474;51.660;5.824;2022-09-06T10:28:27;5.1;;;2.9;;
56593;SDS011;42474;51.660;5.824;2022-09-06T10:33:36;3.4;;;2.2;;
56593;SDS011;42474;51.660;5.824;2022-09-06T10:38:59;3.2;;;1.9;;
56593;SDS011;42474;51.660;5.824;2022-09-06T10:43:16;3.0;;;1.7;;
56593;SDS011;42474;51.660;5.824;2022-09-06T10:48:15;4.6;;;2.2;;
56593;SDS011;42474;51.660;5.824;2022-09-06T10:53:20;2.2;;;1.6;;
56593;SDS011;42474;51.660;5.824;2022-09-06T10:58:16;3.6;;;1.9;;
56593;SDS011;42474;51.660;5.824;2022-09-06T11:03:25;2.0;;;1.4;;
56593;SDS011;42474;51.660;5.824;2022-09-06T11:08:42;5.5;;;1.9;;
56593;SDS011;42474;51.660;5.824;2022-09-06T11:13:15;4.1;;;1.8;;
56593;SDS011;42474;51.660;5.824;2022-09-06T11:18:40;2.5;;;1.4;;
56593;SDS011;42474;51.660;5.824;2022-09-06T11:24:08;2.9;;;1.5;;
56593;SDS011;42474;51.660;5.824;2022-09-06T11:28:21;3.1;;;1.6;;
56593;SDS011;42474;51.660;5.824;2022-09-06T11:33:27;4.3;;;1.5;;
56593;SDS011;42474;51.660;5.824;2022-09-06T11:38:19;2.8;;;1.6;;
56593;SDS011;42474;51.660;5.824;2022-09-06T11:43:45;3.3;;;1.7;;
56593;SDS011;42474;51.660;5.824;2022-09-06T11:48:34;3.0;;;1.7;;
56593;SDS011;42474;51.660;5.824;2022-09-06T11:53:19;3.1;;;1.7;;
56593;SDS011;42474;51.660;5.824;2022-09-06T11:58:23;2.4;;;1.7;;
56593;SDS011;42474;51.660;5.824;2022-09-06T12:04:00;3.2;;;2.0;;
56593;SDS011;42474;51.660;5.824;2022-09-06T12:08:33;5.2;;;2.1;;
56593;SDS011;42474;51.660;5.824;2022-09-06T12:13:38;4.7;;;2.2;;
56593;SDS011;42474;51.660;5.824;2022-09-06T12:18:52;3.3;;;1.8;;
56593;SDS011;42474;51.660;5.824;2022-09-06T12:23:39;2.4;;;1.5;;
56593;SDS011;42474;51.660;5.824;2022-09-06T12:28:22;2.5;;;1.5;;
56593;SDS011;42474;51.660;5.824;2022-09-06T12:33:19;2.8;;;2.0;;
56593;SDS011;42474;51.660;5.824;2022-09-06T12:38:15;4.2;;;1.9;;
56593;SDS011;42474;51.660;5.824;2022-09-06T12:43:15;3.0;;;1.9;;
56593;SDS011;42474;51.660;5.824;2022-09-06T12:48:24;3.8;;;1.7;;
56593;SDS011;42474;51.660;5.824;2022-09-06T12:53:20;3.7;;;1.7;;
56593;SDS011;42474;51.660;5.824;2022-09-06T12:58:15;2.7;;;1.4;;
56593;SDS011;42474;51.660;5.824;2022-09-06T13:03:30;3.8;;;1.5;;
56593;SDS011;42474;51.660;5.824;2022-09-06T13:08:17;2.8;;;1.5;;
56593;SDS011;42474;51.660;5.824;2022-09-06T13:13:17;4.1;;;1.4;;
56593;SDS011;42474;51.660;5.824;2022-09-06T13:18:37;3.7;;;1.3;;
56593;SDS011;42474;51.660;5.824;2022-09-06T13:23:19;3.1;;;1.3;;
56593;SDS011;42474;51.660;5.824;2022-09-06T13:28:22;1.7;;;1.2;;
56593;SDS011;42474;51.660;5.824;2022-09-06T13:33:19;3.9;;;1.1;;
56593;SDS011;42474;51.660;5.824;2022-09-06T13:38:30;3.1;;;1.2;;
56593;SDS011;42474;51.660;5.824;2022-09-06T13:43:15;6.7;;;1.3;;
56593;SDS011;42474;51.660;5.824;2022-09-06T13:48:15;2.7;;;1.4;;
56593;SDS011;42474;51.660;5.824;2022-09-06T13:53:17;3.0;;;1.6;;
56593;SDS011;42474;51.660;5.824;2022-09-06T13:58:15;3.2;;;1.6;;
56593;SDS011;42474;51.660;5.824;2022-09-06T14:03:18;3.1;;;1.6;;
56593;SDS011;42474;51.660;5.824;2022-09-06T14:08:15;4.3;;;1.9;;
56593;SDS011;42474;51.660;5.824;2022-09-06T14:13:15;2.1;;;1.3;;
56593;SDS011;42474;51.660;5.824;2022-09-06T14:18:15;2.3;;;1.5;;
56593;SDS011;42474;51.660;5.824;2022-09-06T14:23:15;2.8;;;1.4;;
56593;SDS011;42474;51.660;5.824;2022-09-06T14:28:15;3.1;;;1.6;;
56593;SDS011;42474;51.660;5.824;2022-09-06T14:33:15;3.3;;;1.4;;
56593;SDS011;42474;51.660;5.824;2022-09-06T14:38:15;1.9;;;1.3;;
56593;SDS011;42474;51.660;5.824;2022-09-06T14:43:15;2.0;;;1.1;;
56593;SDS011;42474;51.660;5.824;2022-09-06T14:48:15;2.5;;;1.2;;
56593;SDS011;42474;51.660;5.824;2022-09-06T14:53:15;2.4;;;1.3;;
56593;SDS011;42474;51.660;5.824;2022-09-06T14:58:15;2.5;;;1.3;;
56593;SDS011;42474;51.660;5.824;2022-09-06T15:03:15;1.7;;;1.2;;
56593;SDS011;42474;51.660;5.824;2022-09-06T15:08:15;2.8;;;1.5;;
56593;SDS011;42474;51.660;5.824;2022-09-06T15:13:15;2.8;;;1.3;;
56593;SDS011;42474;51.660;5.824;2022-09-06T15:18:15;6.2;;;1.7;;
56593;SDS011;42474;51.660;5.824;2022-09-06T15:23:15;2.0;;;1.6;;
56593;SDS011;42474;51.660;5.824;2022-09-06T15:28:15;2.2;;;1.6;;
56593;SDS011;42474;51.660;5.824;2022-09-06T15:33:15;2.1;;;1.7;;
56593;SDS011;42474;51.660;5.824;2022-09-06T15:38:15;2.3;;;1.7;;
56593;SDS011;42474;51.660;5.824;2022-09-06T15:43:15;3.2;;;1.9;;
56593;SDS011;42474;51.660;5.824;2022-09-06T15:48:15;3.3;;;1.8;;
56593;SDS011;42474;51.660;5.824;2022-09-06T15:53:15;3.2;;;1.8;;
56593;SDS011;42474;51.660;5.824;2022-09-06T15:58:15;3.7;;;1.8;;
56593;SDS011;42474;51.660;5.824;2022-09-06T16:03:15;4.2;;;2.0;;
56593;SDS011;42474;51.660;5.824;2022-09-06T16:08:15;3.1;;;1.8;;
56593;SDS011;42474;51.660;5.824;2022-09-06T16:13:15;2.5;;;1.9;;
56593;SDS011;42474;51.660;5.824;2022-09-06T16:18:15;5.6;;;2.1;;
56593;SDS011;42474;51.660;5.824;2022-09-06T16:23:15;4.6;;;2.4;;
56593;SDS011;42474;51.660;5.824;2022-09-06T16:28:15;3.0;;;1.9;;
56593;SDS011;42474;51.660;5.824;2022-09-06T16:33:15;3.9;;;2.3;;
56593;SDS011;42474;51.660;5.824;2022-09-06T16:38:15;3.4;;;2.0;;
56593;SDS011;42474;51.660;5.824;2022-09-06T16:43:15;3.4;;;2.1;;
56593;SDS011;42474;51.660;5.824;2022-09-06T16:48:15;3.7;;;2.3;;
56593;SDS011;42474;51.660;5.824;2022-09-06T16:53:15;4.7;;;2.1;;
56593;SDS011;42474;51.660;5.824;2022-09-06T16:58:15;3.8;;;2.3;;
56593;SDS011;42474;51.660;5.824;2022-09-06T17:03:15;4.1;;;2.6;;
56593;SDS011;42474;51.660;5.824;2022-09-06T17:08:15;4.8;;;2.3;;
56593;SDS011;42474;51.660;5.824;2022-09-06T17:13:15;4.4;;;2.6;;
56593;SDS011;42474;51.660;5.824;2022-09-06T17:18:15;5.8;;;2.4;;
56593;SDS011;42474;51.660;5.824;2022-09-06T17:23:15;4.3;;;2.5;;
56593;SDS011;42474;51.660;5.824;2022-09-06T17:28:15;4.9;;;2.1;;
56593;SDS011;42474;51.660;5.824;2022-09-06T17:33:15;4.8;;;2.4;;
56593;SDS011;42474;51.660;5.824;2022-09-06T17:38:15;8.7;;;2.5;;
56593;SDS011;42474;51.660;5.824;2022-09-06T17:43:15;4.4;;;2.1;;
56593;SDS011;42474;51.660;5.824;2022-09-06T17:48:15;6.0;;;2.8;;
56593;SDS011;42474;51.660;5.824;2022-09-06T17:53:15;5.1;;;2.3;;
56593;SDS011;42474;51.660;5.824;2022-09-06T17:58:15;6.8;;;2.3;;
56593;SDS011;42474;51.660;5.824;2022-09-06T18:03:15;5.0;;;2.0;;
56593;SDS011;42474;51.660;5.824;2022-09-06T18:08:15;5.4;;;2.4;;
56593;SDS011;42474;51.660;5.824;2022-09-06T18:13:15;5.3;;;2.2;;
56593;SDS011;42474;51.660;5.824;2022-09-06T18:18:15;4.8;;;2.4;;
56593;SDS011;42474;51.660;5.824;2022-09-06T18:23:15;6.3;;;2.5;;
56593;SDS011;42474;51.660;5.824;2022-09-06T18:28:15;7.0;;;2.1;;
56593;SDS011;42474;51.660;5.824;2022-09-06T18:33:15;6.1;;;2.4;;
56593;SDS011;42474;51.660;5.824;2022-09-06T18:38:16;3.6;;;2.3;;
56593;SDS011;42474;51.660;5.824;2022-09-06T18:43:15;5.6;;;3.0;;
56593;SDS011;42474;51.660;5.824;2022-09-06T18:48:15;5.2;;;2.8;;
56593;SDS011;42474;51.660;5.824;2022-09-06T18:53:15;6.6;;;3.5;;
56593;SDS011;42474;51.660;5.824;2022-09-06T18:58:15;5.7;;;2.8;;
56593;SDS011;42474;51.660;5.824;2022-09-06T19:03:15;5.5;;;3.0;;
56593;SDS011;42474;51.660;5.824;2022-09-06T19:08:15;4.0;;;2.7;;
56593;SDS011;42474;51.660;5.824;2022-09-06T19:13:15;11.2;;;3.6;;
56593;SDS011;42474;51.660;5.824;2022-09-06T19:18:15;7.5;;;2.9;;
56593;SDS011;42474;51.660;5.824;2022-09-06T19:23:15;9.8;;;3.1;;
56593;SDS011;42474;51.660;5.824;2022-09-06T19:28:15;8.4;;;4.0;;
56593;SDS011;42474;51.660;5.824;2022-09-06T19:33:15;11.3;;;4.3;;
56593;SDS011;42474;51.660;5.824;2022-09-06T19:38:15;8.9;;;4.8;;
56593;SDS011;42474;51.660;5.824;2022-09-06T19:43:15;7.4;;;4.4;;
56593;SDS011;42474;51.660;5.824;2022-09-06T19:48:15;7.3;;;5.0;;
56593;SDS011;42474;51.660;5.824;2022-09-06T19:53:15;5.6;;;4.1;;
56593;SDS011;42474;51.660;5.824;2022-09-06T19:58:15;6.2;;;4.2;;
56593;SDS011;42474;51.660;5.824;2022-09-06T20:03:15;7.0;;;4.1;;
56593;SDS011;42474;51.660;5.824;2022-09-06T20:08:15;10.1;;;4.8;;
56593;SDS011;42474;51.660;5.824;2022-09-06T20:13:15;7.3;;;4.1;;
56593;SDS011;42474;51.660;5.824;2022-09-06T20:18:15;4.7;;;3.7;;
56593;SDS011;42474;51.660;5.824;2022-09-06T20:23:15;6.3;;;4.0;;
56593;SDS011;42474;51.660;5.824;2022-09-06T20:28:15;4.8;;;2.8;;
56593;SDS011;42474;51.660;5.824;2022-09-06T20:33:15;4.9;;;3.0;;
56593;SDS011;42474;51.660;5.824;2022-09-06T20:38:15;4.8;;;3.0;;
56593;SDS011;42474;51.660;5.824;2022-09-06T20:43:15;5.1;;;3.0;;
56593;SDS011;42474;51.660;5.824;2022-09-06T20:48:15;6.7;;;3.1;;
56593;SDS011;42474;51.660;5.824;2022-09-06T20:53:15;4.9;;;3.4;;
56593;SDS011;42474;51.660;5.824;2022-09-06T20:58:15;4.2;;;3.0;;
56593;SDS011;42474;51.660;5.824;2022-09-06T21:03:15;4.6;;;3.4;;
56593;SDS011;42474;51.660;5.824;2022-09-06T21:08:15;8.3;;;4.6;;
56593;SDS011;42474;51.660;5.824;2022-09-06T21:13:15;5.2;;;3.5;;
56593;SDS011;42474;51.660;5.824;2022-09-06T21:18:15;4.5;;;3.2;;
56593;SDS011;42474;51.660;5.824;2022-09-06T21:23:15;3.7;;;3.0;;
56593;SDS011;42474;51.660;5.824;2022-09-06T21:28:15;5.2;;;3.3;;
56593;SDS011;42474;51.660;5.824;2022-09-06T21:33:15;4.3;;;3.5;;
56593;SDS011;42474;51.660;5.824;2022-09-06T21:38:15;4.8;;;3.1;;
56593;SDS011;42474;51.660;5.824;2022-09-06T21:43:15;4.9;;;3.6;;
56593;SDS011;42474;51.660;5.824;2022-09-06T21:48:15;4.3;;;3.5;;
56593;SDS011;42474;51.660;5.824;2022-09-06T21:53:15;5.0;;;3.7;;
56593;SDS011;42474;51.660;5.824;2022-09-06T21:58:15;4.7;;;3.3;;
56593;SDS011;42474;51.660;5.824;2022-09-06T22:03:15;4.7;;;3.2;;
56593;SDS011;42474;51.660;5.824;2022-09-06T22:08:15;4.0;;;3.2;;
56593;SDS011;42474;51.660;5.824;2022-09-06T22:13:15;9.2;;;4.2;;
56593;SDS011;42474;51.660;5.824;2022-09-06T22:18:15;7.4;;;4.1;;
56593;SDS011;42474;51.660;5.824;2022-09-06T22:23:15;7.0;;;4.7;;
56593;SDS011;42474;51.660;5.824;2022-09-06T22:28:15;7.2;;;5.3;;
56593;SDS011;42474;51.660;5.824;2022-09-06T22:33:15;9.1;;;5.0;;
56593;SDS011;42474;51.660;5.824;2022-09-06T22:38:15;7.3;;;4.6;;
56593;SDS011;42474;51.660;5.824;2022-09-06T22:43:15;7.3;;;4.8;;
56593;SDS011;42474;51.660;5.824;2022-09-06T22:48:15;5.6;;;4.6;;
56593;SDS011;42474;51.660;5.824;2022-09-06T22:53:15;8.7;;;5.8;;
56593;SDS011;42474;51.660;5.824;2022-09-06T22:58:15;8.1;;;6.2;;
56593;SDS011;42474;51.660;5.824;2022-09-06T23:03:15;9.6;;;8.0;;
56593;SDS011;42474;51.660;5.824;2022-09-06T23:08:15;11.1;;;8.9;;
56593;SDS011;42474;51.660;5.824;2022-09-06T23:13:15;12.8;;;10.4;;
56593;SDS011;42474;51.660;5.824;2022-09-06T23:18:15;12.1;;;10.3;;
56593;SDS011;42474;51.660;5.824;2022-09-06T23:23:15;12.5;;;10.1;;
56593;SDS011;42474;51.660;5.824;2022-09-06T23:28:15;10.7;;;8.6;;
56593;SDS011;42474;51.660;5.824;2022-09-06T23:33:15;11.9;;;8.6;;
56593;SDS011;42474;51.660;5.824;2022-09-06T23:38:15;10.4;;;8.9;;
56593;SDS011;42474;51.660;5.824;2022-09-06T23:43:15;12.2;;;9.7;;
56593;SDS011;42474;51.660;5.824;2022-09-06T23:48:15;13.4;;;9.9;;
56593;SDS011;42474;51.660;5.824;2022-09-06T23:53:15;13.9;;;10.8;;
56593;SDS011;42474;51.660;5.824;2022-09-06T23:58:15;14.8;;;12.3;;
